sensor_id;sensor_type;location;lat;lon;timestamp;pressure;altitude;pressure_sealevel;temperature;humidity
6393;BME280;3229;42.674;23.282;2023-08-06T00:00:22;93495.53;;;20.56;100.00
6393;BME280;3229;42.674;23.282;2023-08-06T00:02:49;93516.25;;;20.67;100.00
6393;BME280;3229;42.674;23.282;2023-08-06T00:05:16;93555.47;;;20.66;100.00
6393;BME280;3229;42.674;23.282;2023-08-06T00:07:46;93570.38;;;20.70;100.00
6393;BME280;3229;42.674;23.282;2023-08-06T00:10:13;93547.78;;;20.71;100.00
6393;BME280;3229;42.674;23.282;2023-08-06T00:12:39;93570.13;;;20.72;100.00
6393;BME280;3229;42.674;23.282;2023-08-06T00:15:09;93551.31;;;20.65;100.00
6393;BME280;3229;42.674;23.282;2023-08-06T00:17:36;93551.16;;;20.83;100.00
6393;BME280;3229;42.674;23.282;2023-08-06T00:20:04;93551.06;;;20.78;100.00
6393;BME280;3229;42.674;23.282;2023-08-06T00:22:32;93552.09;;;20.77;100.00
6393;BME280;3229;42.674;23.282;2023-08-06T00:24:58;93559.41;;;20.80;100.00
6393;BME280;3229;42.674;23.282;2023-08-06T00:27:25;93557.94;;;20.84;100.00
6393;BME280;3229;42.674;23.282;2023-08-06T00:29:52;93556.69;;;20.87;100.00
6393;BME280;3229;42.674;23.282;2023-08-06T00:32:21;93551.16;;;20.95;100.00
6393;BME280;3229;42.674;23.282;2023-08-06T00:34:47;93530.25;;;20.90;100.00
6393;BME280;3229;42.674;23.282;2023-08-06T00:37:15;93529.34;;;20.84;100.00
6393;BME280;3229;42.674;23.282;2023-08-06T00:39:42;93539.09;;;20.77;99.45
6393;BME280;3229;42.674;23.282;2023-08-06T00:42:09;93534.69;;;20.77;99.76
6393;BME280;3229;42.674;23.282;2023-08-06T00:44:36;93492.94;;;20.56;100.00
6393;BME280;3229;42.674;23.282;2023-08-06T00:47:04;93534.78;;;20.83;100.00
6393;BME280;3229;42.674;23.282;2023-08-06T00:49:33;93531.16;;;20.84;99.82
6393;BME280;3229;42.674;23.282;2023-08-06T00:52:00;93524.94;;;20.85;100.00
6393;BME280;3229;42.674;23.282;2023-08-06T00:54:27;93512.66;;;20.68;99.94
6393;BME280;3229;42.674;23.282;2023-08-06T00:56:54;93522.22;;;20.79;100.00
6393;BME280;3229;42.674;23.282;2023-08-06T00:59:21;93512.19;;;20.83;100.00
6393;BME280;3229;42.674;23.282;2023-08-06T01:01:48;93512.41;;;20.82;100.00
6393;BME280;3229;42.674;23.282;2023-08-06T01:04:15;93507.75;;;20.84;100.00
6393;BME280;3229;42.674;23.282;2023-08-06T01:06:48;93501.09;;;20.88;99.94
6393;BME280;3229;42.674;23.282;2023-08-06T01:09:30;93473.19;;;20.83;100.00
6393;BME280;3229;42.674;23.282;2023-08-06T01:12:06;93476.72;;;20.77;100.00
6393;BME280;3229;42.674;23.282;2023-08-06T01:14:40;93480.22;;;20.71;100.00
6393;BME280;3229;42.674;23.282;2023-08-06T01:17:12;93489.59;;;20.72;100.00
6393;BME280;3229;42.674;23.282;2023-08-06T01:19:39;93486.88;;;20.78;100.00
6393;BME280;3229;42.674;23.282;2023-08-06T01:22:07;93494.78;;;20.72;100.00
6393;BME280;3229;42.674;23.282;2023-08-06T01:24:34;93487.81;;;20.61;100.00
6393;BME280;3229;42.674;23.282;2023-08-06T01:27:05;93490.09;;;20.57;100.00
6393;BME280;3229;42.674;23.282;2023-08-06T01:29:35;93485.22;;;20.61;100.00
6393;BME280;3229;42.674;23.282;2023-08-06T01:32:05;93484.44;;;20.60;100.00
6393;BME280;3229;42.674;23.282;2023-08-06T01:34:35;93468.84;;;20.60;100.00
6393;BME280;3229;42.674;23.282;2023-08-06T01:37:04;93459.34;;;20.66;100.00
6393;BME280;3229;42.674;23.282;2023-08-06T01:39:34;93459.59;;;20.64;100.00
6393;BME280;3229;42.674;23.282;2023-08-06T01:42:01;93473.28;;;20.60;100.00
6393;BME280;3229;42.674;23.282;2023-08-06T01:44:28;93469.06;;;20.59;100.00
6393;BME280;3229;42.674;23.282;2023-08-06T01:46:54;93463.97;;;20.64;100.00
6393;BME280;3229;42.674;23.282;2023-08-06T01:49:21;93463.53;;;20.55;100.00
6393;BME280;3229;42.674;23.282;2023-08-06T01:51:48;93475.06;;;20.59;100.00
6393;BME280;3229;42.674;23.282;2023-08-06T01:54:15;93476.06;;;20.58;100.00
6393;BME280;3229;42.674;23.282;2023-08-06T01:56:43;93471.47;;;20.60;100.00
6393;BME280;3229;42.674;23.282;2023-08-06T01:59:10;93467.84;;;20.61;100.00
6393;BME280;3229;42.674;23.282;2023-08-06T02:01:36;93458.69;;;20.59;100.00
6393;BME280;3229;42.674;23.282;2023-08-06T02:04:03;93451.47;;;20.61;100.00
6393;BME280;3229;42.674;23.282;2023-08-06T02:06:30;93438.94;;;20.58;100.00
6393;BME280;3229;42.674;23.282;2023-08-06T02:08:57;93447.06;;;20.61;100.00
6393;BME280;3229;42.674;23.282;2023-08-06T02:11:23;93448.09;;;20.60;100.00
6393;BME280;3229;42.674;23.282;2023-08-06T02:13:52;93461.63;;;20.62;100.00
6393;BME280;3229;42.674;23.282;2023-08-06T02:16:18;93462.88;;;20.60;100.00
6393;BME280;3229;42.674;23.282;2023-08-06T02:18:45;93465.25;;;20.61;100.00
6393;BME280;3229;42.674;23.282;2023-08-06T02:21:12;93472.25;;;20.61;100.00
6393;BME280;3229;42.674;23.282;2023-08-06T02:23:38;93489.66;;;20.60;100.00
6393;BME280;3229;42.674;23.282;2023-08-06T02:26:05;93487.59;;;20.62;100.00
6393;BME280;3229;42.674;23.282;2023-08-06T02:28:32;93457.78;;;20.65;100.00
6393;BME280;3229;42.674;23.282;2023-08-06T02:31:00;93449.75;;;20.66;100.00
6393;BME280;3229;42.674;23.282;2023-08-06T02:33:27;93447.06;;;20.61;100.00
6393;BME280;3229;42.674;23.282;2023-08-06T02:35:59;93462.88;;;20.60;100.00
6393;BME280;3229;42.674;23.282;2023-08-06T02:38:26;93408.72;;;20.16;100.00
6393;BME280;3229;42.674;23.282;2023-08-06T02:40:53;93498.75;;;20.63;100.00
6393;BME280;3229;42.674;23.282;2023-08-06T02:43:20;93498.22;;;20.61;100.00
6393;BME280;3229;42.674;23.282;2023-08-06T02:45:46;93493.47;;;20.58;100.00
6393;BME280;3229;42.674;23.282;2023-08-06T02:48:14;93492.44;;;20.59;100.00
6393;BME280;3229;42.674;23.282;2023-08-06T02:50:43;93478.78;;;20.63;100.00
6393;BME280;3229;42.674;23.282;2023-08-06T02:53:10;93459.34;;;20.66;100.00
6393;BME280;3229;42.674;23.282;2023-08-06T02:55:37;93432.81;;;20.64;100.00
6393;BME280;3229;42.674;23.282;2023-08-06T02:58:03;93426.38;;;20.54;100.00
6393;BME280;3229;42.674;23.282;2023-08-06T03:00:30;93423.00;;;20.54;100.00
6393;BME280;3229;42.674;23.282;2023-08-06T03:02:57;93450.00;;;20.53;100.00
6393;BME280;3229;42.674;23.282;2023-08-06T03:05:25;93430.91;;;20.59;100.00
6393;BME280;3229;42.674;23.282;2023-08-06T03:07:51;93387.06;;;20.63;100.00
6393;BME280;3229;42.674;23.282;2023-08-06T03:10:18;93404.38;;;20.57;100.00
6393;BME280;3229;42.674;23.282;2023-08-06T03:12:45;93441.75;;;20.56;100.00
6393;BME280;3229;42.674;23.282;2023-08-06T03:15:12;93393.13;;;20.16;100.00
6393;BME280;3229;42.674;23.282;2023-08-06T03:17:39;93432.00;;;20.63;100.00
6393;BME280;3229;42.674;23.282;2023-08-06T03:20:06;93389.91;;;20.61;100.00
6393;BME280;3229;42.674;23.282;2023-08-06T03:22:35;93395.34;;;20.60;100.00
6393;BME280;3229;42.674;23.282;2023-08-06T03:25:01;93419.81;;;20.64;100.00
6393;BME280;3229;42.674;23.282;2023-08-06T03:27:28;93421.97;;;20.67;100.00
6393;BME280;3229;42.674;23.282;2023-08-06T03:29:55;93414.03;;;20.73;100.00
6393;BME280;3229;42.674;23.282;2023-08-06T03:32:22;93433.81;;;20.74;100.00
6393;BME280;3229;42.674;23.282;2023-08-06T03:34:49;93452.69;;;20.70;100.00
6393;BME280;3229;42.674;23.282;2023-08-06T03:37:15;93475.03;;;20.71;100.00
6393;BME280;3229;42.674;23.282;2023-08-06T03:39:44;93465.75;;;20.75;100.00
6393;BME280;3229;42.674;23.282;2023-08-06T03:42:10;93457.28;;;20.79;100.00
6393;BME280;3229;42.674;23.282;2023-08-06T03:44:37;93469.81;;;20.83;100.00
6393;BME280;3229;42.674;23.282;2023-08-06T03:47:04;93449.81;;;20.83;100.00
6393;BME280;3229;42.674;23.282;2023-08-06T03:49:31;93453.44;;;20.82;100.00
6393;BME280;3229;42.674;23.282;2023-08-06T03:51:58;93462.09;;;20.88;100.00
6393;BME280;3229;42.674;23.282;2023-08-06T03:54:25;93470.69;;;20.88;100.00
6393;BME280;3229;42.674;23.282;2023-08-06T03:56:53;93457.94;;;20.87;100.00
6393;BME280;3229;42.674;23.282;2023-08-06T03:59:20;93467.63;;;20.91;100.00
6393;BME280;3229;42.674;23.282;2023-08-06T04:01:46;93468.44;;;20.92;100.00
6393;BME280;3229;42.674;23.282;2023-08-06T04:04:13;93468.19;;;20.93;100.00
6393;BME280;3229;42.674;23.282;2023-08-06T04:06:40;93476.22;;;20.92;100.00
6393;BME280;3229;42.674;23.282;2023-08-06T04:09:07;93486.16;;;20.95;100.00
6393;BME280;3229;42.674;23.282;2023-08-06T04:11:34;93483.56;;;20.95;100.00
6393;BME280;3229;42.674;23.282;2023-08-06T04:14:02;93491.38;;;20.95;100.00
6393;BME280;3229;42.674;23.282;2023-08-06T04:16:28;93485.94;;;20.96;100.00
6393;BME280;3229;42.674;23.282;2023-08-06T04:18:55;93488.84;;;21.00;100.00
6393;BME280;3229;42.674;23.282;2023-08-06T04:21:23;93490.31;;;21.08;100.00
6393;BME280;3229;42.674;23.282;2023-08-06T04:23:50;93481.16;;;21.05;100.00
6393;BME280;3229;42.674;23.282;2023-08-06T04:26:17;93482.88;;;20.99;100.00
6393;BME280;3229;42.674;23.282;2023-08-06T04:28:43;93452.41;;;20.83;100.00
6393;BME280;3229;42.674;23.282;2023-08-06T04:31:12;93468.19;;;20.93;100.00
6393;BME280;3229;42.674;23.282;2023-08-06T04:33:40;93466.94;;;20.96;100.00
6393;BME280;3229;42.674;23.282;2023-08-06T04:36:06;93466.69;;;20.97;100.00
6393;BME280;3229;42.674;23.282;2023-08-06T04:38:33;93424.97;;;20.75;100.00
6393;BME280;3229;42.674;23.282;2023-08-06T04:41:02;93452.09;;;21.08;100.00
6393;BME280;3229;42.674;23.282;2023-08-06T04:43:28;93443.34;;;21.14;100.00
6393;BME280;3229;42.674;23.282;2023-08-06T04:45:55;93432.03;;;21.20;100.00
6393;BME280;3229;42.674;23.282;2023-08-06T04:48:23;93429.75;;;21.24;100.00
6393;BME280;3229;42.674;23.282;2023-08-06T04:50:50;93425.44;;;21.29;100.00
6393;BME280;3229;42.674;23.282;2023-08-06T04:53:17;93408.22;;;21.28;100.00
6393;BME280;3229;42.674;23.282;2023-08-06T04:55:44;93380.75;;;21.16;100.00
6393;BME280;3229;42.674;23.282;2023-08-06T04:58:12;93405.47;;;21.47;100.00
6393;BME280;3229;42.674;23.282;2023-08-06T05:00:39;93370.03;;;21.29;100.00
6393;BME280;3229;42.674;23.282;2023-08-06T05:03:06;93368.66;;;21.38;100.00
6393;BME280;3229;42.674;23.282;2023-08-06T05:05:34;93394.16;;;21.58;100.00
6393;BME280;3229;42.674;23.282;2023-08-06T05:08:01;93396.63;;;21.65;100.00
6393;BME280;3229;42.674;23.282;2023-08-06T05:10:28;93397.88;;;21.79;100.00
6393;BME280;3229;42.674;23.282;2023-08-06T05:12:55;93401.06;;;22.20;100.00
6393;BME280;3229;42.674;23.282;2023-08-06T05:15:22;93404.78;;;22.68;98.31
6393;BME280;3229;42.674;23.282;2023-08-06T05:17:50;93408.84;;;23.08;96.40
6393;BME280;3229;42.674;23.282;2023-08-06T05:20:17;93402.97;;;23.49;95.00
6393;BME280;3229;42.674;23.282;2023-08-06T05:22:45;93411.44;;;23.99;92.84
6393;BME280;3229;42.674;23.282;2023-08-06T05:25:13;93420.25;;;24.35;88.94
6393;BME280;3229;42.674;23.282;2023-08-06T05:27:40;93413.88;;;24.58;87.77
6393;BME280;3229;42.674;23.282;2023-08-06T05:30:08;93411.84;;;24.81;88.74
6393;BME280;3229;42.674;23.282;2023-08-06T05:32:35;93398.38;;;25.14;88.13
6393;BME280;3229;42.674;23.282;2023-08-06T05:35:03;93404.94;;;25.58;84.32
6393;BME280;3229;42.674;23.282;2023-08-06T05:37:29;93412.53;;;25.85;82.65
6393;BME280;3229;42.674;23.282;2023-08-06T05:39:58;93411.44;;;26.16;80.16
6393;BME280;3229;42.674;23.282;2023-08-06T05:42:24;93401.69;;;26.37;80.40
6393;BME280;3229;42.674;23.282;2023-08-06T05:44:51;93406.38;;;26.50;81.69
6393;BME280;3229;42.674;23.282;2023-08-06T05:47:18;93408.22;;;26.55;78.42
6393;BME280;3229;42.674;23.282;2023-08-06T05:49:45;93412.94;;;26.38;77.47
6393;BME280;3229;42.674;23.282;2023-08-06T05:52:12;93404.34;;;26.27;77.34
6393;BME280;3229;42.674;23.282;2023-08-06T05:54:39;93415.38;;;26.19;74.61
6393;BME280;3229;42.674;23.282;2023-08-06T05:57:08;93423.75;;;26.16;75.49
6393;BME280;3229;42.674;23.282;2023-08-06T05:59:35;93426.13;;;26.22;76.10
6393;BME280;3229;42.674;23.282;2023-08-06T06:02:02;93437.63;;;26.47;74.83
6393;BME280;3229;42.674;23.282;2023-08-06T06:04:28;93416.66;;;26.47;71.49
6393;BME280;3229;42.674;23.282;2023-08-06T06:06:55;93426.59;;;26.50;73.63
6393;BME280;3229;42.674;23.282;2023-08-06T06:09:22;93445.16;;;26.69;71.41
6393;BME280;3229;42.674;23.282;2023-08-06T06:11:49;93448.22;;;26.81;68.92
6393;BME280;3229;42.674;23.282;2023-08-06T06:14:17;93441.44;;;26.75;69.99
6393;BME280;3229;42.674;23.282;2023-08-06T06:16:44;93441.97;;;26.77;69.96
6393;BME280;3229;42.674;23.282;2023-08-06T06:19:11;93448.25;;;26.76;69.61
6393;BME280;3229;42.674;23.282;2023-08-06T06:21:38;93458.50;;;26.72;68.48
6393;BME280;3229;42.674;23.282;2023-08-06T06:24:05;93459.53;;;26.82;66.97
6393;BME280;3229;42.674;23.282;2023-08-06T06:26:33;93464.78;;;26.76;67.63
6393;BME280;3229;42.674;23.282;2023-08-06T06:29:00;93475.81;;;26.68;67.08
6393;BME280;3229;42.674;23.282;2023-08-06T06:31:28;93469.34;;;26.45;67.47
6393;BME280;3229;42.674;23.282;2023-08-06T06:33:55;93467.28;;;26.22;68.04
6393;BME280;3229;42.674;23.282;2023-08-06T06:36:21;93470.19;;;26.00;68.88
6393;BME280;3229;42.674;23.282;2023-08-06T06:38:49;93478.00;;;25.74;69.61
6393;BME280;3229;42.674;23.282;2023-08-06T06:41:15;93493.41;;;25.45;72.27
6393;BME280;3229;42.674;23.282;2023-08-06T06:43:42;93499.91;;;25.17;74.83
6393;BME280;3229;42.674;23.282;2023-08-06T06:46:09;93499.81;;;25.02;76.31
6393;BME280;3229;42.674;23.282;2023-08-06T06:48:37;93503.16;;;24.92;73.41
6393;BME280;3229;42.674;23.282;2023-08-06T06:51:04;93474.47;;;24.50;76.01
6393;BME280;3229;42.674;23.282;2023-08-06T06:53:30;93501.97;;;24.63;75.43
6393;BME280;3229;42.674;23.282;2023-08-06T06:56:02;93509.53;;;24.59;77.02
6393;BME280;3229;42.674;23.282;2023-08-06T06:58:29;93526.91;;;24.81;76.59
6393;BME280;3229;42.674;23.282;2023-08-06T07:00:56;93518.22;;;25.17;75.02
6393;BME280;3229;42.674;23.282;2023-08-06T07:03:22;93523.03;;;25.61;71.27
6393;BME280;3229;42.674;23.282;2023-08-06T07:05:50;93452.81;;;25.27;70.83
6393;BME280;3229;42.674;23.282;2023-08-06T07:08:17;93529.09;;;25.77;69.39
6393;BME280;3229;42.674;23.282;2023-08-06T07:10:44;93535.13;;;25.88;68.77
6393;BME280;3229;42.674;23.282;2023-08-06T07:13:11;93533.84;;;26.26;66.13
6393;BME280;3229;42.674;23.282;2023-08-06T07:15:37;93536.16;;;26.63;62.89
6393;BME280;3229;42.674;23.282;2023-08-06T07:18:04;93536.31;;;27.02;64.61
6393;BME280;3229;42.674;23.282;2023-08-06T07:20:31;93543.31;;;27.33;62.00
6393;BME280;3229;42.674;23.282;2023-08-06T07:23:00;93537.47;;;27.51;60.65
6393;BME280;3229;42.674;23.282;2023-08-06T07:25:27;93532.38;;;27.65;57.69
6393;BME280;3229;42.674;23.282;2023-08-06T07:27:54;93537.84;;;27.79;58.18
6393;BME280;3229;42.674;23.282;2023-08-06T07:30:22;93541.94;;;27.95;57.03
6393;BME280;3229;42.674;23.282;2023-08-06T07:32:48;93547.69;;;27.97;56.97
6393;BME280;3229;42.674;23.282;2023-08-06T07:35:15;93545.50;;;28.09;58.03
6393;BME280;3229;42.674;23.282;2023-08-06T07:37:42;93535.66;;;28.25;56.39
6393;BME280;3229;42.674;23.282;2023-08-06T07:40:11;93540.88;;;28.30;56.11
6393;BME280;3229;42.674;23.282;2023-08-06T07:42:38;93530.38;;;28.30;55.38
6393;BME280;3229;42.674;23.282;2023-08-06T07:45:06;93522.09;;;28.13;55.44
6393;BME280;3229;42.674;23.282;2023-08-06T07:47:33;93536.31;;;28.46;54.72
6393;BME280;3229;42.674;23.282;2023-08-06T07:50:00;93531.19;;;28.60;54.49
6393;BME280;3229;42.674;23.282;2023-08-06T07:52:27;93527.16;;;28.91;55.94
6393;BME280;3229;42.674;23.282;2023-08-06T07:54:53;93521.69;;;29.12;52.27
6393;BME280;3229;42.674;23.282;2023-08-06T07:57:21;93523.56;;;29.30;53.72
6393;BME280;3229;42.674;23.282;2023-08-06T07:59:48;93531.00;;;29.47;51.32
6393;BME280;3229;42.674;23.282;2023-08-06T08:02:15;93531.97;;;29.56;52.94
6393;BME280;3229;42.674;23.282;2023-08-06T08:04:42;93520.13;;;29.91;53.37
6393;BME280;3229;42.674;23.282;2023-08-06T08:07:09;93501.91;;;30.09;52.77
6393;BME280;3229;42.674;23.282;2023-08-06T08:09:36;93518.66;;;30.37;49.00
6393;BME280;3229;42.674;23.282;2023-08-06T08:12:03;93522.75;;;30.43;50.11
6393;BME280;3229;42.674;23.282;2023-08-06T08:14:31;93525.31;;;30.48;48.81
6393;BME280;3229;42.674;23.282;2023-08-06T08:17:01;93529.81;;;30.15;48.75
6393;BME280;3229;42.674;23.282;2023-08-06T08:19:28;93520.16;;;30.05;49.78
6393;BME280;3229;42.674;23.282;2023-08-06T08:21:55;93529.03;;;29.95;48.92
6393;BME280;3229;42.674;23.282;2023-08-06T08:24:22;93526.13;;;29.97;50.68
6393;BME280;3229;42.674;23.282;2023-08-06T08:26:50;93530.44;;;30.07;50.13
6393;BME280;3229;42.674;23.282;2023-08-06T08:29:17;93525.94;;;30.26;48.66
6393;BME280;3229;42.674;23.282;2023-08-06T08:31:45;93530.63;;;30.29;48.62
6393;BME280;3229;42.674;23.282;2023-08-06T08:34:14;93536.91;;;30.33;48.66
6393;BME280;3229;42.674;23.282;2023-08-06T08:36:41;93521.84;;;30.34;48.45
6393;BME280;3229;42.674;23.282;2023-08-06T08:39:08;93524.66;;;30.23;49.16
6393;BME280;3229;42.674;23.282;2023-08-06T08:41:37;93523.78;;;30.14;50.00
6393;BME280;3229;42.674;23.282;2023-08-06T08:44:08;93522.44;;;30.12;50.48
6393;BME280;3229;42.674;23.282;2023-08-06T08:46:36;93519.19;;;30.01;52.13
6393;BME280;3229;42.674;23.282;2023-08-06T08:49:05;93516.50;;;29.87;52.11
6393;BME280;3229;42.674;23.282;2023-08-06T08:51:33;93515.22;;;29.66;51.51
6393;BME280;3229;42.674;23.282;2023-08-06T08:54:02;93512.13;;;29.40;50.50
6393;BME280;3229;42.674;23.282;2023-08-06T08:56:29;93509.00;;;29.38;50.01
6393;BME280;3229;42.674;23.282;2023-08-06T08:58:56;93514.03;;;29.34;50.91
6393;BME280;3229;42.674;23.282;2023-08-06T09:01:24;93507.63;;;29.40;51.28
6393;BME280;3229;42.674;23.282;2023-08-06T09:03:51;93506.34;;;29.38;50.03
6393;BME280;3229;42.674;23.282;2023-08-06T09:06:21;93499.50;;;29.18;50.41
6393;BME280;3229;42.674;23.282;2023-08-06T09:08:54;93503.34;;;29.07;52.19
6393;BME280;3229;42.674;23.282;2023-08-06T09:11:23;93502.97;;;29.13;50.82
6393;BME280;3229;42.674;23.282;2023-08-06T09:13:50;93497.59;;;29.23;51.18
6393;BME280;3229;42.674;23.282;2023-08-06T09:16:17;93499.38;;;29.28;52.21
6393;BME280;3229;42.674;23.282;2023-08-06T09:18:43;93504.44;;;29.24;52.71
6393;BME280;3229;42.674;23.282;2023-08-06T09:21:14;93489.03;;;29.32;51.52
6393;BME280;3229;42.674;23.282;2023-08-06T09:23:42;93488.25;;;29.31;50.83
6393;BME280;3229;42.674;23.282;2023-08-06T09:26:11;93483.91;;;29.40;51.34
6393;BME280;3229;42.674;23.282;2023-08-06T09:28:39;93484.53;;;29.56;49.49
6393;BME280;3229;42.674;23.282;2023-08-06T09:31:08;93476.66;;;29.51;49.45
6393;BME280;3229;42.674;23.282;2023-08-06T09:33:37;93480.19;;;29.65;48.25
6393;BME280;3229;42.674;23.282;2023-08-06T09:36:10;93477.19;;;29.72;45.88
6393;BME280;3229;42.674;23.282;2023-08-06T09:38:38;93482.81;;;29.65;45.46
6393;BME280;3229;42.674;23.282;2023-08-06T09:41:07;93465.56;;;29.54;46.02
6393;BME280;3229;42.674;23.282;2023-08-06T09:43:41;93448.34;;;29.24;47.37
6393;BME280;3229;42.674;23.282;2023-08-06T09:46:12;93479.09;;;29.29;47.68
6393;BME280;3229;42.674;23.282;2023-08-06T09:48:40;93480.41;;;29.07;49.56
6393;BME280;3229;42.674;23.282;2023-08-06T09:51:08;93477.88;;;28.97;50.20
6393;BME280;3229;42.674;23.282;2023-08-06T09:53:37;93477.88;;;28.97;50.23
6393;BME280;3229;42.674;23.282;2023-08-06T09:56:04;93466.47;;;28.83;49.93
6393;BME280;3229;42.674;23.282;2023-08-06T09:58:32;93475.78;;;28.99;50.68
6393;BME280;3229;42.674;23.282;2023-08-06T10:01:00;93483.13;;;29.21;49.84
6393;BME280;3229;42.674;23.282;2023-08-06T10:03:29;93482.22;;;29.31;48.62
6393;BME280;3229;42.674;23.282;2023-08-06T10:05:57;93494.91;;;29.29;49.40
6393;BME280;3229;42.674;23.282;2023-08-06T10:08:27;93496.84;;;29.18;48.91
6393;BME280;3229;42.674;23.282;2023-08-06T10:10:54;93498.06;;;29.07;48.78
6393;BME280;3229;42.674;23.282;2023-08-06T10:13:23;93496.66;;;28.90;48.30
6393;BME280;3229;42.674;23.282;2023-08-06T10:15:52;93502.19;;;28.89;49.55
6393;BME280;3229;42.674;23.282;2023-08-06T10:18:19;93495.66;;;29.10;48.93
6393;BME280;3229;42.674;23.282;2023-08-06T10:20:47;93483.47;;;29.14;47.63
6393;BME280;3229;42.674;23.282;2023-08-06T10:23:14;93483.22;;;29.16;49.08
6393;BME280;3229;42.674;23.282;2023-08-06T10:25:42;93496.94;;;29.32;47.08
6393;BME280;3229;42.674;23.282;2023-08-06T10:28:10;93485.78;;;29.21;47.39
6393;BME280;3229;42.674;23.282;2023-08-06T10:30:42;93493.75;;;29.16;46.44
6393;BME280;3229;42.674;23.282;2023-08-06T10:33:11;93498.34;;;29.05;47.04
6393;BME280;3229;42.674;23.282;2023-08-06T10:35:40;93493.28;;;28.85;46.83
6393;BME280;3229;42.674;23.282;2023-08-06T10:38:10;93505.75;;;28.74;48.04
6393;BME280;3229;42.674;23.282;2023-08-06T10:40:39;93506.78;;;28.54;49.74
6393;BME280;3229;42.674;23.282;2023-08-06T10:43:06;93507.94;;;28.43;50.77
6393;BME280;3229;42.674;23.282;2023-08-06T10:45:36;93510.88;;;28.31;51.59
6393;BME280;3229;42.674;23.282;2023-08-06T10:48:04;93522.53;;;28.25;52.06
6393;BME280;3229;42.674;23.282;2023-08-06T10:50:32;93520.72;;;28.20;52.00
6393;BME280;3229;42.674;23.282;2023-08-06T10:53:03;93520.59;;;28.01;52.90
6393;BME280;3229;42.674;23.282;2023-08-06T10:55:31;93521.94;;;27.99;53.07
6393;BME280;3229;42.674;23.282;2023-08-06T10:57:58;93520.84;;;28.05;53.06
6393;BME280;3229;42.674;23.282;2023-08-06T11:00:24;93523.16;;;28.12;53.66
6393;BME280;3229;42.674;23.282;2023-08-06T11:02:52;93540.16;;;28.24;53.33
6393;BME280;3229;42.674;23.282;2023-08-06T11:05:20;93540.03;;;28.40;52.71
6393;BME280;3229;42.674;23.282;2023-08-06T11:07:48;93515.19;;;28.22;51.62
6393;BME280;3229;42.674;23.282;2023-08-06T11:10:17;93536.69;;;28.29;52.27
6393;BME280;3229;42.674;23.282;2023-08-06T11:12:43;93534.78;;;28.35;52.10
6393;BME280;3229;42.674;23.282;2023-08-06T11:15:10;93540.09;;;28.30;55.09
6393;BME280;3229;42.674;23.282;2023-08-06T11:17:39;93556.09;;;27.99;54.99
6393;BME280;3229;42.674;23.282;2023-08-06T11:20:07;93569.91;;;27.70;58.63
6393;BME280;3229;42.674;23.282;2023-08-06T11:22:36;93574.81;;;27.33;61.21
6393;BME280;3229;42.674;23.282;2023-08-06T11:25:06;93565.47;;;27.01;61.96
6393;BME280;3229;42.674;23.282;2023-08-06T11:27:33;93561.84;;;26.71;64.40
6393;BME280;3229;42.674;23.282;2023-08-06T11:30:00;93549.53;;;26.41;66.98
6393;BME280;3229;42.674;23.282;2023-08-06T11:32:27;93560.31;;;26.40;66.17
6393;BME280;3229;42.674;23.282;2023-08-06T11:34:54;93561.06;;;26.25;66.78
6393;BME280;3229;42.674;23.282;2023-08-06T11:37:22;93555.84;;;26.30;67.51
6393;BME280;3229;42.674;23.282;2023-08-06T11:39:50;93554.28;;;26.49;69.61
6393;BME280;3229;42.674;23.282;2023-08-06T11:42:19;93549.28;;;26.58;68.95
6393;BME280;3229;42.674;23.282;2023-08-06T11:44:46;93540.88;;;26.66;69.61
6393;BME280;3229;42.674;23.282;2023-08-06T11:47:14;93525.44;;;26.55;70.12
6393;BME280;3229;42.674;23.282;2023-08-06T11:49:43;93541.38;;;26.68;71.37
6393;BME280;3229;42.674;23.282;2023-08-06T11:52:13;93540.38;;;26.64;69.79
6393;BME280;3229;42.674;23.282;2023-08-06T11:54:41;93538.53;;;26.65;69.30
6393;BME280;3229;42.674;23.282;2023-08-06T11:57:08;93471.69;;;26.32;68.32
6393;BME280;3229;42.674;23.282;2023-08-06T11:59:37;93532.19;;;26.76;66.23
6393;BME280;3229;42.674;23.282;2023-08-06T12:02:04;93526.16;;;26.86;65.36
6393;BME280;3229;42.674;23.282;2023-08-06T12:04:32;93521.16;;;26.94;63.87
6393;BME280;3229;42.674;23.282;2023-08-06T12:07:05;93526.06;;;27.06;62.77
6393;BME280;3229;42.674;23.282;2023-08-06T12:09:33;93526.84;;;27.22;61.94
6393;BME280;3229;42.674;23.282;2023-08-06T12:12:01;93507.94;;;27.20;61.18
6393;BME280;3229;42.674;23.282;2023-08-06T12:14:28;93521.22;;;27.44;61.01
6393;BME280;3229;42.674;23.282;2023-08-06T12:16:56;93518.78;;;27.52;57.02
6393;BME280;3229;42.674;23.282;2023-08-06T12:19:23;93516.47;;;27.46;54.81
6393;BME280;3229;42.674;23.282;2023-08-06T12:21:50;93516.00;;;27.39;55.44
6393;BME280;3229;42.674;23.282;2023-08-06T12:24:17;93516.75;;;27.44;56.37
6393;BME280;3229;42.674;23.282;2023-08-06T12:26:43;93524.13;;;27.42;56.51
6393;BME280;3229;42.674;23.282;2023-08-06T12:29:10;93513.91;;;27.36;56.22
6393;BME280;3229;42.674;23.282;2023-08-06T12:31:37;93515.25;;;27.33;57.41
6393;BME280;3229;42.674;23.282;2023-08-06T12:34:05;93517.06;;;27.33;58.59
6393;BME280;3229;42.674;23.282;2023-08-06T12:36:32;93525.97;;;27.37;58.04
6393;BME280;3229;42.674;23.282;2023-08-06T12:38:59;93524.91;;;27.43;57.45
6393;BME280;3229;42.674;23.282;2023-08-06T12:41:25;93519.91;;;27.46;57.98
6393;BME280;3229;42.674;23.282;2023-08-06T12:43:52;93513.81;;;27.51;57.62
6393;BME280;3229;42.674;23.282;2023-08-06T12:46:19;93506.16;;;27.55;57.37
6393;BME280;3229;42.674;23.282;2023-08-06T12:48:45;93505.38;;;27.59;57.42
6393;BME280;3229;42.674;23.282;2023-08-06T12:51:15;93508.75;;;27.65;58.18
6393;BME280;3229;42.674;23.282;2023-08-06T12:53:42;93504.00;;;27.67;58.58
6393;BME280;3229;42.674;23.282;2023-08-06T12:56:08;93505.31;;;27.69;57.66
6393;BME280;3229;42.674;23.282;2023-08-06T12:58:35;93511.59;;;27.73;56.23
6393;BME280;3229;42.674;23.282;2023-08-06T13:01:02;93507.41;;;27.72;54.87
6393;BME280;3229;42.674;23.282;2023-08-06T13:03:29;93504.22;;;27.70;55.09
6393;BME280;3229;42.674;23.282;2023-08-06T13:05:55;93499.25;;;27.74;53.66
6393;BME280;3229;42.674;23.282;2023-08-06T13:08:24;93502.16;;;27.72;52.96